Time;durP1;ratioP1;P1;durP2;ratioP2;P2;SDS_P1;SDS_P2;PMS_P1;PMS_P2;Temp;Humidity;BMP_temperature;BMP_pressure;BME280_temperature;BME280_humidity;BME280_pressure;Samples;Min_cycle;Max_cycle;Signal;HPM_P1;HPM_P2
2023/12/07 00:01:06;;;;;;;14.60;9.68;;;3.20;87.30;;;;;;5008809;28;20528;-64
2023/12/07 00:03:31;;;;;;;15.15;9.30;;;3.10;87.30;;;;;;5009307;28;20046;-64
2023/12/07 00:05:57;;;;;;;13.95;9.23;;;3.00;87.50;;;;;;4990421;28;20563;-64
2023/12/07 00:08:23;;;;;;;15.25;9.25;;;3.00;87.80;;;;;;5007829;28;20109;-64
2023/12/07 00:10:48;;;;;;;13.05;8.85;;;2.90;87.90;;;;;;5005059;28;20092;-64
2023/12/07 00:13:14;;;;;;;15.15;9.02;;;2.90;88.10;;;;;;5008236;28;20080;-63
2023/12/07 00:15:40;;;;;;;14.05;9.32;;;2.90;88.30;;;;;;5008482;28;20476;-64
2023/12/07 00:18:05;;;;;;;14.30;9.50;;;2.80;88.40;;;;;;5007840;28;20574;-64
2023/12/07 00:20:31;;;;;;;13.73;9.13;;;2.80;88.60;;;;;;5007649;28;20058;-64
2023/12/07 00:22:57;;;;;;;13.90;8.90;;;2.80;88.70;;;;;;5007560;28;20064;-64
2023/12/07 00:25:22;;;;;;;13.15;9.57;;;2.70;88.80;;;;;;5008711;28;20045;-64
2023/12/07 00:27:48;;;;;;;16.20;9.00;;;2.70;89.10;;;;;;5007607;28;20405;-64
2023/12/07 00:30:14;;;;;;;13.35;9.00;;;2.70;89.30;;;;;;5006869;28;20042;-64
2023/12/07 00:32:43;;;;;;;15.13;9.45;;;2.70;89.30;;;;;;5007934;28;20604;-64
2023/12/07 00:35:12;;;;;;;14.32;8.85;;;2.70;89.50;;;;;;5008544;28;20062;-64
2023/12/07 00:37:37;;;;;;;14.38;9.45;;;2.70;89.40;;;;;;5008452;28;20540;-64
2023/12/07 00:40:04;;;;;;;16.88;9.27;;;2.70;89.40;;;;;;5006638;28;20041;-64
2023/12/07 00:42:30;;;;;;;13.82;9.20;;;2.70;89.30;;;;;;5007246;28;20113;-64
2023/12/07 00:44:55;;;;;;;13.70;8.95;;;2.70;89.40;;;;;;5007886;28;20042;-64
2023/12/07 00:47:21;;;;;;;14.82;9.45;;;2.70;89.40;;;;;;5006939;28;20053;-64
2023/12/07 00:49:47;;;;;;;14.20;9.13;;;2.70;89.70;;;;;;5008128;28;20225;-64
2023/12/07 00:52:13;;;;;;;13.50;9.60;;;2.70;89.80;;;;;;5007371;28;20441;-64
2023/12/07 00:54:39;;;;;;;13.80;9.27;;;2.70;89.60;;;;;;5006072;28;20065;-64
2023/12/07 00:57:07;;;;;;;14.60;9.70;;;2.70;89.30;;;;;;5006007;28;20049;-64
2023/12/07 00:59:36;;;;;;;13.27;8.75;;;2.70;89.30;;;;;;5007049;28;20034;-64
2023/12/07 01:02:05;;;;;;;12.75;8.30;;;2.70;89.30;;;;;;5007059;28;20087;-64
2023/12/07 01:04:34;;;;;;;13.27;8.93;;;2.70;89.40;;;;;;5006277;28;20080;-64
2023/12/07 01:07:00;;;;;;;13.55;8.77;;;2.80;89.50;;;;;;5007370;28;20037;-64
2023/12/07 01:09:28;;;;;;;13.90;8.85;;;2.80;89.40;;;;;;5006691;28;20092;-64
2023/12/07 01:11:53;;;;;;;13.55;8.98;;;2.80;89.30;;;;;;5006019;28;20060;-64
2023/12/07 01:14:19;;;;;;;13.18;8.98;;;2.80;89.30;;;;;;5007840;28;20560;-64
2023/12/07 01:16:45;;;;;;;14.15;9.10;;;2.80;89.40;;;;;;5007081;28;20477;-64
2023/12/07 01:19:14;;;;;;;12.70;8.52;;;2.80;89.20;;;;;;5007550;28;20048;-64
2023/12/07 01:21:40;;;;;;;14.35;9.48;;;2.90;89.30;;;;;;5007407;28;20293;-64
2023/12/07 01:24:05;;;;;;;14.52;9.27;;;2.90;89.00;;;;;;5006868;28;20065;-64
2023/12/07 01:26:32;;;;;;;13.70;9.48;;;2.90;88.90;;;;;;5006417;28;20489;-64
2023/12/07 01:28:57;;;;;;;13.15;8.48;;;2.90;88.90;;;;;;5006429;28;20580;-64
2023/12/07 01:31:23;;;;;;;15.77;9.85;;;2.90;88.90;;;;;;5006751;28;20054;-64
2023/12/07 01:33:48;;;;;;;13.45;9.13;;;2.90;89.10;;;;;;5007353;28;20030;-64
2023/12/07 01:36:14;;;;;;;16.27;9.82;;;2.90;89.10;;;;;;5006530;28;20521;-64
2023/12/07 01:38:39;;;;;;;16.17;9.80;;;2.90;89.10;;;;;;5005757;28;20452;-64
2023/12/07 01:41:05;;;;;;;14.07;10.00;;;2.90;89.10;;;;;;5006336;28;20034;-64
2023/12/07 01:43:30;;;;;;;14.68;9.73;;;3.00;89.10;;;;;;5007004;28;20053;-64
2023/12/07 01:46:00;;;;;;;16.73;10.60;;;2.90;89.10;;;;;;5006417;28;20025;-64
2023/12/07 01:48:27;;;;;;;15.32;9.95;;;3.00;89.10;;;;;;5006080;28;20034;-65
2023/12/07 01:50:55;;;;;;;15.88;10.60;;;3.00;89.10;;;;;;5006174;28;20038;-64
2023/12/07 01:53:22;;;;;;;14.68;9.82;;;3.10;89.20;;;;;;5006483;28;20034;-64
2023/12/07 01:55:48;;;;;;;15.55;9.90;;;3.00;89.10;;;;;;5005261;28;20049;-64
2023/12/07 01:58:16;;;;;;;16.88;10.13;;;3.00;89.30;;;;;;5005210;28;20506;-64
2023/12/07 02:00:42;;;;;;;13.57;9.48;;;3.00;89.50;;;;;;5007022;28;20108;-64
2023/12/07 02:03:07;;;;;;;14.50;10.52;;;3.00;89.40;;;;;;5005940;28;20168;-64
2023/12/07 02:05:33;;;;;;;14.43;9.45;;;3.00;89.30;;;;;;5007013;28;20034;-64
2023/12/07 02:07:59;;;;;;;13.23;9.40;;;3.00;89.20;;;;;;5004436;28;20387;-64
2023/12/07 02:10:25;;;;;;;13.95;9.48;;;3.00;89.00;;;;;;5004154;28;20046;-64
2023/12/07 02:12:52;;;;;;;15.95;10.05;;;3.00;88.90;;;;;;5003576;28;20034;-64
2023/12/07 02:15:19;;;;;;;15.77;10.07;;;3.00;88.80;;;;;;5005518;28;20640;-64
2023/12/07 02:18:01;;;;;;;14.27;9.63;;;3.00;88.90;;;;;;5006631;28;20196;-64
2023/12/07 02:20:48;;;;;;;13.93;9.40;;;3.00;88.70;;;;;;5006352;28;20041;-64
2023/12/07 02:23:17;;;;;;;15.25;9.88;;;3.10;88.60;;;;;;4988311;28;20038;-64
2023/12/07 02:25:52;;;;;;;15.45;9.77;;;3.00;88.40;;;;;;5005600;28;20381;-64
2023/12/07 02:28:17;;;;;;;15.70;10.07;;;3.00;88.10;;;;;;5004918;28;20030;-63
2023/12/07 02:30:43;;;;;;;17.13;10.52;;;3.00;87.70;;;;;;5005084;28;20348;-64
2023/12/07 02:33:09;;;;;;;16.35;10.23;;;3.00;87.70;;;;;;4987979;28;20045;-64
2023/12/07 02:35:36;;;;;;;17.65;11.15;;;2.90;87.70;;;;;;5005478;28;20374;-64
2023/12/07 02:38:03;;;;;;;16.92;10.50;;;2.90;87.70;;;;;;5004744;28;20038;-64
2023/12/07 02:40:29;;;;;;;16.58;10.77;;;2.80;87.70;;;;;;5005860;28;20077;-64
2023/12/07 02:42:56;;;;;;;16.70;10.60;;;2.80;87.40;;;;;;5004719;28;20088;-64
2023/12/07 02:45:22;;;;;;;15.05;9.80;;;2.70;87.50;;;;;;5006734;28;20066;-64
2023/12/07 02:47:47;;;;;;;14.93;9.93;;;2.60;87.70;;;;;;5004987;28;20038;-64
2023/12/07 02:50:13;;;;;;;14.75;9.55;;;2.60;88.20;;;;;;5005294;28;20026;-64
2023/12/07 02:52:39;;;;;;;14.90;9.25;;;2.60;88.40;;;;;;5004894;28;20030;-64
2023/12/07 02:55:05;;;;;;;17.30;9.98;;;2.50;88.50;;;;;;5004660;28;20042;-64
2023/12/07 02:57:33;;;;;;;13.35;8.70;;;2.50;88.70;;;;;;5005239;28;20083;-64
2023/12/07 02:59:59;;;;;;;14.10;9.65;;;2.50;88.70;;;;;;5004471;28;20080;-65
2023/12/07 03:02:25;;;;;;;12.48;8.95;;;2.50;88.90;;;;;;5005121;28;20044;-64
2023/12/07 03:04:51;;;;;;;14.10;9.10;;;2.50;89.00;;;;;;5005112;28;20030;-64
2023/12/07 03:07:16;;;;;;;13.65;9.07;;;2.60;88.90;;;;;;5005503;28;20033;-65
2023/12/07 03:09:42;;;;;;;15.13;9.20;;;2.60;88.60;;;;;;5005328;28;20040;-65
2023/12/07 03:12:08;;;;;;;11.82;8.43;;;2.60;88.20;;;;;;4991985;28;20033;-64
2023/12/07 03:14:33;;;;;;;13.77;8.73;;;2.60;88.30;;;;;;5004365;28;20628;-65
2023/12/07 03:16:59;;;;;;;14.70;9.25;;;2.60;88.50;;;;;;5005131;28;20483;-65
2023/12/07 03:19:25;;;;;;;14.00;9.60;;;2.60;88.60;;;;;;5004845;28;20069;-65
2023/12/07 03:21:51;;;;;;;13.40;9.32;;;2.60;88.60;;;;;;4987938;28;20037;-64
2023/12/07 03:24:16;;;;;;;13.55;9.10;;;2.60;88.60;;;;;;5005105;28;20164;-64
2023/12/07 03:26:42;;;;;;;16.20;8.98;;;2.60;88.30;;;;;;5005830;28;20041;-65
2023/12/07 03:29:07;;;;;;;13.27;8.80;;;2.60;88.10;;;;;;5005032;28;20053;-65
2023/12/07 03:31:33;;;;;;;13.45;8.80;;;2.60;88.10;;;;;;5005021;28;20085;-65
2023/12/07 03:34:00;;;;;;;12.82;8.82;;;2.60;88.20;;;;;;5004624;28;20088;-65
2023/12/07 03:36:27;;;;;;;13.52;8.43;;;2.60;88.20;;;;;;5004756;28;20026;-65
2023/12/07 03:38:52;;;;;;;14.40;8.63;;;2.60;87.90;;;;;;5004457;28;20498;-64
2023/12/07 03:41:18;;;;;;;14.57;9.00;;;2.60;87.90;;;;;;5004973;28;20038;-65
2023/12/07 03:43:44;;;;;;;14.30;9.18;;;2.60;87.80;;;;;;5005092;28;20073;-65
2023/12/07 03:46:10;;;;;;;15.60;9.52;;;2.60;87.70;;;;;;5004882;28;20046;-65
2023/12/07 03:48:35;;;;;;;14.73;9.07;;;2.60;87.40;;;;;;5004383;28;20518;-65
2023/12/07 03:51:01;;;;;;;14.35;9.52;;;2.60;87.20;;;;;;5003986;28;20069;-65
2023/12/07 03:53:27;;;;;;;13.02;9.02;;;2.60;87.30;;;;;;5005076;28;20437;-65
2023/12/07 03:55:53;;;;;;;16.45;9.57;;;2.60;87.50;;;;;;5003234;28;20537;-64
2023/12/07 03:58:19;;;;;;;16.42;9.10;;;2.50;87.50;;;;;;5003474;28;20030;-65
2023/12/07 04:00:45;;;;;;;14.85;9.90;;;2.50;87.30;;;;;;5002962;28;20062;-65
2023/12/07 04:03:11;;;;;;;18.63;10.27;;;2.50;87.40;;;;;;5003705;28;20041;-65
2023/12/07 04:05:37;;;;;;;16.40;9.70;;;2.50;87.60;;;;;;5004255;28;20579;-65
2023/12/07 04:08:05;;;;;;;15.77;9.55;;;2.50;87.50;;;;;;5003844;28;20510;-64
2023/12/07 04:10:31;;;;;;;17.23;10.00;;;2.40;87.70;;;;;;5003252;28;20045;-65
2023/12/07 04:12:56;;;;;;;19.23;10.25;;;2.40;87.70;;;;;;5003367;28;20113;-64
2023/12/07 04:15:22;;;;;;;17.35;10.02;;;2.40;87.60;;;;;;4987081;28;20041;-65
2023/12/07 04:17:48;;;;;;;16.20;10.35;;;2.40;87.60;;;;;;5005073;28;20030;-65
2023/12/07 04:20:14;;;;;;;26.95;13.23;;;2.40;88.60;;;;;;5004541;28;20041;-64
2023/12/07 04:22:40;;;;;;;45.60;19.92;;;2.30;87.60;;;;;;5004499;28;20564;-65
2023/12/07 04:25:09;;;;;;;37.85;17.73;;;2.30;87.60;;;;;;5004416;28;20030;-65
2023/12/07 04:27:34;;;;;;;33.92;16.13;;;2.30;87.60;;;;;;5002975;28;20034;-65
2023/12/07 04:30:00;;;;;;;25.65;14.40;;;2.30;87.70;;;;;;5004069;28;20034;-65
2023/12/07 04:32:26;;;;;;;20.83;11.88;;;2.30;87.80;;;;;;5007262;28;20513;-65
2023/12/07 04:34:52;;;;;;;19.00;11.27;;;2.30;87.80;;;;;;5008893;28;20054;-65
2023/12/07 04:37:18;;;;;;;17.67;11.18;;;2.30;87.80;;;;;;5008959;28;20496;-65
2023/12/07 04:39:43;;;;;;;18.25;10.85;;;2.30;87.70;;;;;;5008534;28;20076;-65
2023/12/07 04:42:12;;;;;;;17.90;10.98;;;2.30;87.70;;;;;;5008199;28;20618;-64
2023/12/07 04:44:37;;;;;;;18.85;11.45;;;2.30;87.60;;;;;;5008248;28;20084;-65
2023/12/07 04:47:03;;;;;;;18.30;10.15;;;2.30;87.60;;;;;;5008847;28;20410;-65
2023/12/07 04:49:29;;;;;;;18.58;11.07;;;2.30;87.70;;;;;;5008619;28;20125;-65
2023/12/07 04:51:54;;;;;;;16.95;10.52;;;2.30;87.80;;;;;;5008738;28;20108;-65
2023/12/07 04:54:23;;;;;;;15.35;10.07;;;2.30;87.80;;;;;;5008422;28;20080;-65
2023/12/07 04:56:49;;;;;;;16.35;9.50;;;2.30;87.70;;;;;;5007268;28;20109;-64
2023/12/07 04:59:14;;;;;;;15.48;9.73;;;2.30;87.50;;;;;;5008312;28;20109;-65
2023/12/07 05:01:40;;;;;;;15.77;10.05;;;2.30;87.50;;;;;;5008540;28;20100;-65
2023/12/07 05:04:05;;;;;;;15.95;10.27;;;2.20;88.20;;;;;;5007757;28;20036;-65
2023/12/07 05:06:31;;;;;;;15.82;10.18;;;2.20;87.90;;;;;;5008099;28;20034;-65
2023/12/07 05:08:57;;;;;;;17.88;10.60;;;2.20;86.90;;;;;;5008441;28;20113;-65
2023/12/07 05:11:23;;;;;;;16.85;10.23;;;2.10;86.70;;;;;;5003914;28;20670;-65
2023/12/07 05:13:48;;;;;;;16.23;9.60;;;2.10;86.80;;;;;;5007945;28;20033;-65
2023/12/07 05:16:14;;;;;;;17.42;10.45;;;2.10;86.80;;;;;;5007206;28;20541;-65
2023/12/07 05:18:40;;;;;;;15.98;9.98;;;2.10;87.00;;;;;;5007107;28;20121;-64
2023/12/07 05:21:06;;;;;;;15.65;10.45;;;2.00;87.10;;;;;;5007279;28;20034;-64
2023/12/07 05:23:32;;;;;;;15.73;10.18;;;2.10;87.20;;;;;;5006563;28;20041;-65
2023/12/07 05:25:57;;;;;;;14.80;9.55;;;2.10;87.20;;;;;;5003451;28;20033;-64
2023/12/07 05:28:23;;;;;;;15.82;9.73;;;2.00;87.20;;;;;;4991686;28;20026;-65
2023/12/07 05:30:49;;;;;;;14.77;9.65;;;2.00;87.20;;;;;;5005185;28;20088;-64
2023/12/07 05:33:15;;;;;;;14.27;9.57;;;2.10;87.20;;;;;;5003901;28;20046;-64
2023/12/07 05:35:41;;;;;;;14.07;10.15;;;2.00;86.90;;;;;;5001845;28;20045;-64
2023/12/07 05:38:06;;;;;;;15.60;9.68;;;2.10;86.80;;;;;;5005505;28;20045;-65
2023/12/07 05:40:33;;;;;;;14.98;9.90;;;2.00;86.40;;;;;;5004959;28;20041;-64
2023/12/07 05:42:59;;;;;;;13.70;9.35;;;2.00;86.40;;;;;;5005591;28;20041;-64
2023/12/07 05:45:26;;;;;;;15.18;10.60;;;2.00;86.30;;;;;;5006828;28;20488;-64
2023/12/07 05:47:51;;;;;;;16.10;10.95;;;2.00;86.30;;;;;;5006035;28;20030;-64
2023/12/07 05:50:17;;;;;;;13.73;9.85;;;2.00;86.40;;;;;;5006080;28;20446;-64
2023/12/07 05:52:42;;;;;;;13.05;9.73;;;1.90;85.90;;;;;;5004372;28;22183;-64
2023/12/07 05:55:08;;;;;;;13.35;9.07;;;1.90;85.40;;;;;;5005742;28;20078;-64
2023/12/07 05:57:34;;;;;;;12.48;8.38;;;1.80;85.40;;;;;;5004962;28;20117;-64
2023/12/07 05:59:59;;;;;;;13.05;8.70;;;1.80;85.60;;;;;;5006325;28;20411;-63
2023/12/07 06:02:25;;;;;;;13.25;9.20;;;1.80;85.30;;;;;;4987522;28;20038;-64
2023/12/07 06:04:51;;;;;;;14.95;9.07;;;1.70;85.10;;;;;;5005696;28;20030;-64
2023/12/07 06:07:16;;;;;;;16.02;9.88;;;1.70;84.70;;;;;;5006140;28;20478;-64
2023/12/07 06:09:42;;;;;;;10.77;7.63;;;1.60;83.90;;;;;;5005838;28;20121;-64
2023/12/07 06:12:07;;;;;;;10.88;7.55;;;1.50;83.50;;;;;;5004222;28;20038;-64
2023/12/07 06:14:33;;;;;;;12.00;7.30;;;1.40;83.20;;;;;;5005478;28;20505;-63
2023/12/07 06:16:59;;;;;;;12.60;6.90;;;1.30;83.10;;;;;;4995391;28;20532;-64
2023/12/07 06:19:25;;;;;;;11.18;7.35;;;1.20;83.30;;;;;;5005521;28;20513;-63
2023/12/07 06:21:50;;;;;;;20.80;6.65;;;1.10;83.90;;;;;;5005533;28;20101;-65
2023/12/07 06:24:16;;;;;;;16.77;8.65;;;1.00;83.90;;;;;;4988581;28;20042;-64
2023/12/07 06:26:42;;;;;;;22.38;11.68;;;1.00;84.00;;;;;;5004800;28;20621;-64
2023/12/07 06:29:07;;;;;;;25.08;12.23;;;0.90;84.20;;;;;;5002459;28;20129;-65
2023/12/07 06:31:33;;;;;;;27.00;12.48;;;0.90;84.60;;;;;;5003370;28;20532;-64
2023/12/07 06:34:03;;;;;;;47.55;14.18;;;0.90;84.80;;;;;;5004031;28;20054;-64
2023/12/07 06:36:28;;;;;;;32.42;13.13;;;0.90;84.70;;;;;;5002189;28;20041;-64
2023/12/07 06:38:57;;;;;;;28.50;12.75;;;0.90;84.70;;;;;;5002992;28;20034;-64
2023/12/07 06:41:23;;;;;;;73.65;13.23;;;0.80;84.80;;;;;;5001013;28;20068;-64
2023/12/07 06:43:51;;;;;;;104.60;13.57;;;0.80;85.00;;;;;;5003249;28;20042;-64
2023/12/07 06:46:19;;;;;;;64.63;11.52;;;0.80;84.70;;;;;;5002865;28;20038;-63
2023/12/07 06:48:45;;;;;;;89.13;13.55;;;0.80;84.60;;;;;;5000789;28;20507;-65
2023/12/07 06:51:12;;;;;;;157.55;14.98;;;0.70;84.70;;;;;;5002172;28;20038;-64
2023/12/07 06:53:38;;;;;;;146.95;13.20;;;0.70;84.50;;;;;;5003668;28;20030;-65
2023/12/07 06:56:03;;;;;;;170.50;13.73;;;0.70;84.20;;;;;;5001976;28;20057;-64
2023/12/07 06:58:29;;;;;;;58.42;9.55;;;0.60;84.20;;;;;;5001260;28;20041;-63
2023/12/07 07:00:55;;;;;;;69.43;10.02;;;0.50;84.50;;;;;;4983079;28;20042;-64
2023/12/07 07:03:24;;;;;;;58.17;9.30;;;0.40;85.00;;;;;;5002263;28;20750;-64
2023/12/07 07:05:50;;;;;;;157.13;10.63;;;0.40;85.40;;;;;;4998740;28;20456;-63
2023/12/07 07:08:15;;;;;;;204.32;18.98;;;0.40;85.60;;;;;;5001497;28;20038;-65
2023/12/07 07:10:41;;;;;;;197.07;19.80;;;0.30;85.40;;;;;;5000521;28;20038;-63
2023/12/07 07:13:07;;;;;;;201.15;19.33;;;0.30;85.30;;;;;;5000186;28;20042;-64
2023/12/07 07:15:33;;;;;;;117.55;11.30;;;0.20;85.50;;;;;;5003156;28;20046;-64
2023/12/07 07:17:58;;;;;;;150.18;12.45;;;0.10;85.60;;;;;;5002534;28;20058;-64
2023/12/07 07:20:24;;;;;;;109.40;11.93;;;0.00;86.50;;;;;;5002458;28;20475;-64
2023/12/07 07:22:50;;;;;;;144.25;13.88;;;0.00;86.00;;;;;;5002823;28;20763;-64
2023/12/07 07:25:16;;;;;;;124.13;11.18;;;0.00;86.50;;;;;;5001393;28;20109;-65
2023/12/07 07:27:42;;;;;;;144.55;11.98;;;-0.10;86.80;;;;;;5003548;28;20458;-63
2023/12/07 07:30:08;;;;;;;71.88;10.63;;;-0.10;87.00;;;;;;5003264;28;20037;-64
2023/12/07 07:32:34;;;;;;;128.15;14.18;;;0.00;87.20;;;;;;5003670;28;20314;-63
2023/12/07 07:34:59;;;;;;;168.45;13.60;;;0.00;87.30;;;;;;5003471;28;20030;-64
2023/12/07 07:37:25;;;;;;;88.75;12.35;;;0.00;87.50;;;;;;5002478;28;20438;-63
2023/12/07 07:39:51;;;;;;;112.13;14.63;;;-0.10;87.50;;;;;;5004058;28;20038;-64
2023/12/07 07:42:16;;;;;;;97.30;13.57;;;0.00;87.60;;;;;;4986634;28;20038;-64
2023/12/07 07:44:42;;;;;;;81.50;12.73;;;0.10;87.50;;;;;;5003262;28;20077;-65
2023/12/07 07:47:08;;;;;;;56.90;10.77;;;0.10;87.20;;;;;;5004692;28;20520;-63
2023/12/07 07:49:33;;;;;;;62.42;9.98;;;0.10;87.10;;;;;;5001880;28;20567;-64
2023/12/07 07:51:59;;;;;;;75.32;12.43;;;0.10;87.00;;;;;;5003450;28;20239;-64
2023/12/07 07:54:25;;;;;;;122.45;15.93;;;0.10;87.00;;;;;;5003303;28;20323;-65
2023/12/07 07:56:51;;;;;;;109.07;13.45;;;0.10;86.80;;;;;;5001241;28;20030;-64
2023/12/07 07:59:16;;;;;;;65.43;10.27;;;0.10;86.50;;;;;;5001969;28;20105;-65
2023/12/07 08:01:42;;;;;;;98.95;10.43;;;0.00;86.30;;;;;;4999707;28;20410;-64
2023/12/07 08:04:13;;;;;;;156.80;11.77;;;-0.10;86.30;;;;;;4999091;28;20046;-63
2023/12/07 08:06:38;;;;;;;163.23;12.48;;;-0.10;86.20;;;;;;5002959;28;20034;-62
2023/12/07 08:09:04;;;;;;;127.43;10.07;;;-0.20;86.00;;;;;;5002921;28;20560;-63
2023/12/07 08:11:33;;;;;;;139.65;11.38;;;-0.30;86.00;;;;;;5006899;28;20112;-65
2023/12/07 08:13:58;;;;;;;80.35;8.43;;;-0.40;86.20;;;;;;5005303;28;20052;-64
2023/12/07 08:16:24;;;;;;;53.08;8.82;;;-0.40;87.30;;;;;;5007569;28;20095;-62
2023/12/07 08:18:52;;;;;;;69.05;8.88;;;-0.50;87.00;;;;;;5004128;28;20038;-63
2023/12/07 08:21:20;;;;;;;61.53;8.90;;;-0.50;87.30;;;;;;5006733;28;20502;-64
2023/12/07 08:23:48;;;;;;;63.47;12.32;;;-0.50;87.70;;;;;;5007618;28;20053;-64
2023/12/07 08:26:14;;;;;;;71.85;15.77;;;-0.50;88.10;;;;;;5004955;28;20056;-63
2023/12/07 08:28:43;;;;;;;66.30;15.52;;;-0.50;88.20;;;;;;5004435;28;20117;-62
2023/12/07 08:31:12;;;;;;;74.90;18.00;;;-0.40;88.20;;;;;;5005855;28;20038;-64
2023/12/07 08:33:39;;;;;;;48.63;17.58;;;-0.40;87.90;;;;;;5005411;28;20030;-64
2023/12/07 08:36:05;;;;;;;55.65;13.98;;;-0.50;87.70;;;;;;4993189;28;20045;-64
2023/12/07 08:38:31;;;;;;;43.22;9.48;;;-0.50;88.70;;;;;;5005036;28;20157;-64
2023/12/07 08:40:57;;;;;;;48.55;10.38;;;-0.40;87.90;;;;;;5007340;28;20044;-64
2023/12/07 08:43:24;;;;;;;59.25;11.57;;;-0.40;87.80;;;;;;5006030;28;20100;-63
2023/12/07 08:45:52;;;;;;;18.48;7.43;;;-0.40;87.60;;;;;;5007013;28;20033;-64
2023/12/07 08:50:53;;;;;;;27.90;6.68;;;-0.50;87.20;;;;;;5593222;23;20054;-63
2023/12/07 08:53:19;;;;;;;21.83;6.30;;;-0.60;87.00;;;;;;5006201;28;20034;-63
2023/12/07 08:55:44;;;;;;;36.80;7.75;;;-0.60;87.10;;;;;;5008236;28;20338;-63
2023/12/07 08:58:10;;;;;;;43.05;6.45;;;-0.60;87.50;;;;;;5008707;28;20424;-64
2023/12/07 09:00:38;;;;;;;51.08;8.63;;;-0.70;87.80;;;;;;5003761;28;20030;-66
2023/12/07 09:03:04;;;;;;;38.55;9.45;;;-0.70;88.20;;;;;;4995736;28;20041;-64
2023/12/07 09:05:33;;;;;;;43.63;12.07;;;-0.60;88.40;;;;;;4997786;28;20069;-63
2023/12/07 09:08:01;;;;;;;45.45;11.68;;;-0.60;88.40;;;;;;4999592;28;20033;-65
2023/12/07 09:10:27;;;;;;;41.00;11.80;;;-0.60;88.50;;;;;;4994339;28;20035;-66
2023/12/07 09:12:55;;;;;;;27.92;8.38;;;-0.60;88.50;;;;;;4983840;28;20034;-63
2023/12/07 09:15:21;;;;;;;20.20;8.25;;;-0.60;88.50;;;;;;4982573;28;20030;-66
2023/12/07 09:17:52;;;;;;;41.65;8.55;;;-0.60;88.60;;;;;;4982637;28;20085;-63
2023/12/07 09:20:20;;;;;;;18.85;9.25;;;-0.60;88.70;;;;;;4982216;28;20301;-63
2023/12/07 09:22:49;;;;;;;43.50;8.70;;;-0.60;88.80;;;;;;4982481;28;20108;-63
2023/12/07 09:25:17;;;;;;;28.02;8.82;;;-0.60;88.90;;;;;;4983815;28;20440;-62
2023/12/07 09:27:43;;;;;;;42.50;10.27;;;-0.50;89.10;;;;;;4983073;28;20038;-66
2023/12/07 09:30:12;;;;;;;21.58;8.68;;;-0.50;89.10;;;;;;4982832;28;20394;-65
2023/12/07 09:32:39;;;;;;;19.80;9.02;;;-0.50;89.20;;;;;;4983032;28;20061;-66
2023/12/07 09:35:08;;;;;;;13.38;8.68;;;-0.40;89.50;;;;;;4983435;28;20039;-63
2023/12/07 09:37:36;;;;;;;11.23;7.82;;;-0.40;89.80;;;;;;4982705;28;20030;-66
2023/12/07 09:40:04;;;;;;;10.93;7.68;;;-0.30;89.90;;;;;;4980456;28;20522;-65
2023/12/07 09:42:33;;;;;;;14.18;9.23;;;-0.20;89.80;;;;;;4981734;28;20111;-64
2023/12/07 09:44:59;;;;;;;15.45;9.50;;;-0.20;89.80;;;;;;4982106;28;20039;-64
2023/12/07 09:47:27;;;;;;;15.95;10.40;;;-0.10;89.80;;;;;;4981966;28;20432;-64
2023/12/07 09:49:53;;;;;;;15.05;8.88;;;0.00;89.90;;;;;;4981627;28;20074;-64
2023/12/07 09:52:21;;;;;;;21.25;9.18;;;0.10;89.90;;;;;;4981223;28;20422;-65
2023/12/07 09:54:47;;;;;;;17.88;9.82;;;0.10;89.80;;;;;;4981671;28;20273;-64
2023/12/07 09:57:13;;;;;;;20.20;12.95;;;0.20;89.70;;;;;;4981791;28;20034;-64
2023/12/07 09:59:40;;;;;;;17.30;10.15;;;0.30;89.60;;;;;;4983734;28;20038;-66
2023/12/07 10:02:07;;;;;;;18.63;10.90;;;0.30;89.70;;;;;;4982902;28;20075;-65
2023/12/07 10:04:33;;;;;;;27.58;15.48;;;0.40;89.70;;;;;;4981403;28;20511;-65
2023/12/07 10:06:58;;;;;;;28.10;15.32;;;0.50;89.60;;;;;;4980595;28;20031;-65
2023/12/07 10:09:25;;;;;;;27.40;15.38;;;0.50;89.40;;;;;;4983808;28;20033;-64
2023/12/07 10:12:02;;;;;;;23.73;13.43;;;0.60;89.40;;;;;;4980785;28;20041;-65
2023/12/07 10:14:28;;;;;;;26.27;14.02;;;0.60;89.60;;;;;;4964848;28;20568;-64
2023/12/07 10:16:58;;;;;;;23.80;13.93;;;0.70;89.70;;;;;;4983145;28;20038;-66
2023/12/07 10:19:24;;;;;;;23.98;13.50;;;0.70;89.60;;;;;;4982058;28;20144;-64
2023/12/07 10:21:51;;;;;;;23.80;13.57;;;0.80;89.40;;;;;;4982141;28;20042;-65
2023/12/07 10:24:21;;;;;;;26.88;15.38;;;0.80;89.30;;;;;;4982162;28;20038;-65
2023/12/07 10:26:48;;;;;;;25.33;14.20;;;0.80;89.10;;;;;;4981905;28;20042;-65
2023/12/07 10:29:19;;;;;;;24.25;13.48;;;0.90;89.10;;;;;;4980802;28;20132;-65
2023/12/07 10:31:46;;;;;;;24.08;14.57;;;0.90;89.00;;;;;;4981444;28;20069;-65
2023/12/07 10:34:12;;;;;;;32.72;17.25;;;0.90;89.00;;;;;;4981061;28;20042;-65
2023/12/07 10:36:38;;;;;;;30.25;17.95;;;1.00;89.10;;;;;;4981154;28;20041;-65
2023/12/07 10:39:06;;;;;;;32.33;17.98;;;1.00;89.20;;;;;;4981483;28;20053;-66
2023/12/07 10:41:34;;;;;;;31.10;17.83;;;1.00;89.30;;;;;;4981160;28;20050;-66
2023/12/07 10:44:06;;;;;;;25.88;15.75;;;1.10;89.40;;;;;;4982734;28;20406;-66
2023/12/07 10:46:36;;;;;;;26.02;15.80;;;1.10;89.50;;;;;;4979955;28;20109;-66
2023/12/07 10:49:07;;;;;;;24.35;15.45;;;1.20;89.60;;;;;;4978562;28;20637;-66
2023/12/07 10:51:45;;;;;;;25.33;15.20;;;1.20;89.50;;;;;;4980241;28;20584;-64
2023/12/07 10:54:16;;;;;;;23.60;13.43;;;1.30;89.60;;;;;;4980297;28;20440;-66
2023/12/07 10:56:46;;;;;;;21.92;13.90;;;1.30;89.70;;;;;;4980305;28;20045;-65
2023/12/07 10:59:13;;;;;;;21.10;13.85;;;1.40;89.70;;;;;;4981138;28;20402;-64
2023/12/07 11:01:42;;;;;;;23.80;14.27;;;1.50;89.80;;;;;;4978801;28;20256;-66
2023/12/07 11:04:12;;;;;;;23.95;14.57;;;1.50;89.90;;;;;;4980529;28;20043;-63
2023/12/07 11:06:40;;;;;;;24.65;14.85;;;1.60;90.00;;;;;;4980485;28;20042;-65
2023/12/07 11:09:17;;;;;;;24.77;14.38;;;1.70;90.10;;;;;;4979871;28;20501;-66
2023/12/07 11:11:48;;;;;;;25.02;13.75;;;1.80;90.20;;;;;;4992183;28;20047;-65
2023/12/07 11:14:16;;;;;;;25.42;15.43;;;1.90;90.20;;;;;;4997644;28;20034;-65
2023/12/07 11:16:48;;;;;;;25.33;14.85;;;1.90;90.10;;;;;;4996039;28;20069;-65
2023/12/07 11:19:39;;;;;;;23.63;15.35;;;2.00;90.00;;;;;;4997464;28;20108;-66
2023/12/07 11:22:12;;;;;;;25.35;15.13;;;2.10;89.60;;;;;;4996884;28;20038;-66
2023/12/07 11:24:51;;;;;;;20.50;13.45;;;2.20;89.60;;;;;;4996205;28;20033;-65
2023/12/07 11:27:17;;;;;;;24.33;15.50;;;2.20;89.60;;;;;;4996691;28;20038;-65
2023/12/07 11:29:45;;;;;;;28.85;17.05;;;2.30;89.70;;;;;;4996471;28;20513;-66
2023/12/07 11:32:11;;;;;;;26.65;15.05;;;2.30;89.20;;;;;;4996724;28;20046;-66
2023/12/07 11:34:41;;;;;;;21.40;13.85;;;2.40;88.60;;;;;;4992644;28;20117;-65
2023/12/07 11:37:14;;;;;;;22.15;13.18;;;2.40;88.40;;;;;;4989491;28;20436;-65
2023/12/07 11:39:41;;;;;;;25.08;16.20;;;2.50;88.40;;;;;;4991645;28;20582;-64
2023/12/07 11:42:11;;;;;;;22.80;14.40;;;2.40;87.90;;;;;;4996558;28;20063;-66
2023/12/07 11:44:39;;;;;;;20.33;13.57;;;2.40;86.70;;;;;;4996382;28;20034;-65
2023/12/07 11:47:05;;;;;;;18.65;12.93;;;2.40;87.30;;;;;;4996378;28;20425;-65
2023/12/07 11:49:31;;;;;;;18.58;11.70;;;2.40;87.50;;;;;;4996718;28;20047;-65
2023/12/07 11:52:01;;;;;;;18.23;11.43;;;2.40;87.90;;;;;;4995418;28;20041;-65
2023/12/07 11:54:27;;;;;;;16.77;11.63;;;2.50;88.10;;;;;;4994484;28;20465;-66
2023/12/07 11:56:56;;;;;;;18.45;11.82;;;2.50;88.20;;;;;;5003613;23;20312;-65
2023/12/07 11:59:27;;;;;;;17.90;11.55;;;2.60;88.20;;;;;;4979512;28;20466;-66
2023/12/07 12:01:53;;;;;;;17.65;11.45;;;2.60;87.90;;;;;;4978760;28;20030;-66
2023/12/07 12:04:18;;;;;;;18.38;10.93;;;2.70;87.70;;;;;;4978551;28;20054;-65
2023/12/07 12:06:45;;;;;;;18.10;11.07;;;2.70;88.60;;;;;;4977901;28;20042;-67
2023/12/07 12:09:17;;;;;;;16.98;10.98;;;2.70;87.50;;;;;;4979087;28;20121;-67
2023/12/07 12:11:49;;;;;;;17.80;11.95;;;2.70;87.00;;;;;;4979827;28;20256;-66
2023/12/07 12:14:18;;;;;;;19.80;11.55;;;2.80;86.60;;;;;;4979486;28;20035;-66
2023/12/07 12:16:45;;;;;;;20.08;13.20;;;2.80;86.80;;;;;;4978913;28;20123;-65
2023/12/07 12:19:11;;;;;;;22.08;13.68;;;2.80;87.10;;;;;;4979228;28;20039;-66
2023/12/07 12:21:38;;;;;;;18.85;12.43;;;2.80;86.90;;;;;;4978247;28;20046;-66
2023/12/07 12:24:10;;;;;;;19.60;12.90;;;2.80;87.00;;;;;;4978596;28;20042;-65
2023/12/07 12:26:41;;;;;;;19.58;12.73;;;2.80;87.00;;;;;;4978355;28;20043;-66
2023/12/07 12:29:08;;;;;;;19.98;12.63;;;2.80;87.20;;;;;;4978885;28;20510;-66
2023/12/07 12:31:34;;;;;;;19.98;12.60;;;2.90;87.20;;;;;;4978960;28;20109;-66
2023/12/07 12:34:06;;;;;;;19.15;12.63;;;2.90;87.20;;;;;;4979302;28;20632;-66
2023/12/07 12:36:32;;;;;;;19.17;12.25;;;2.90;86.80;;;;;;4977616;28;20299;-65
2023/12/07 12:38:58;;;;;;;18.42;12.18;;;3.00;86.80;;;;;;4979115;28;20042;-66